Time;durP1;ratioP1;P1;durP2;ratioP2;P2;SDS_P1;SDS_P2;PMS_P1;PMS_P2;Temp;Humidity;BMP_temperature;BMP_pressure;BME280_temperature;BME280_humidity;BME280_pressure;Samples;Min_cycle;Max_cycle;Signal;HPM_P1;HPM_P2
2022/11/19 00:00:52;;;;;;;10.07;6.50;;;-3.80;99.90;-4.30;100100.00;;;;4897082;28;93536;-61
2022/11/19 00:03:20;;;;;;;9.10;5.97;;;-3.80;99.90;-4.40;100099.00;;;;4894413;28;110873;-62
2022/11/19 00:05:48;;;;;;;8.43;5.67;;;-3.80;99.90;-4.40;100096.00;;;;4896579;28;92975;-62
2022/11/19 00:08:18;;;;;;;7.40;5.37;;;-3.80;99.90;-4.40;100096.00;;;;4895801;28;93385;-62
2022/11/19 00:10:45;;;;;;;8.97;4.93;;;-4.00;99.90;-4.40;100100.00;;;;4893715;28;93195;-62
2022/11/19 00:13:13;;;;;;;8.90;5.00;;;-3.90;99.90;-4.50;100108.00;;;;4896384;28;96449;-62
2022/11/19 00:15:39;;;;;;;7.27;4.73;;;-3.90;99.90;-4.50;100089.00;;;;4893064;28;93770;-63
2022/11/19 00:18:06;;;;;;;7.50;4.87;;;-3.90;99.90;-4.50;100093.00;;;;4890930;28;115986;-63
2022/11/19 00:20:33;;;;;;;7.47;4.47;;;-4.00;99.90;-4.50;100096.00;;;;4895570;28;114588;-62
2022/11/19 00:22:59;;;;;;;7.37;4.77;;;-3.90;99.90;-4.50;100091.00;;;;4899829;28;92819;-62
2022/11/19 00:25:28;;;;;;;9.23;5.43;;;-3.90;99.90;-4.50;100095.00;;;;4895217;28;108157;-63
2022/11/19 00:27:56;;;;;;;9.23;4.10;;;-4.00;99.90;-4.50;100098.00;;;;4895052;28;94475;-64
2022/11/19 00:30:22;;;;;;;8.57;4.47;;;-4.10;99.90;-4.50;100104.00;;;;4897900;28;93777;-63
2022/11/19 00:32:47;;;;;;;6.63;4.53;;;-4.10;99.90;-4.60;100104.00;;;;4899090;28;109972;-61
2022/11/19 00:35:14;;;;;;;5.93;3.80;;;-4.00;99.90;-4.60;100105.00;;;;4897644;28;107952;-63
2022/11/19 00:37:40;;;;;;;8.03;4.50;;;-4.00;99.90;-4.60;100110.00;;;;4895752;28;123377;-63
2022/11/19 00:40:07;;;;;;;6.27;4.33;;;-4.00;99.90;-4.60;100102.00;;;;4898419;28;94116;-64
2022/11/19 00:42:34;;;;;;;5.60;3.90;;;-4.00;99.90;-4.60;100114.00;;;;4892456;28;92853;-63
2022/11/19 00:45:00;;;;;;;5.90;4.03;;;-4.00;99.90;-4.70;100106.00;;;;4897935;28;92926;-63
2022/11/19 00:47:26;;;;;;;6.17;4.10;;;-4.10;99.90;-4.70;100106.00;;;;4890271;28;122109;-64
2022/11/19 00:49:52;;;;;;;6.67;4.40;;;-4.00;99.90;-4.70;100113.00;;;;4892316;28;102281;-63
2022/11/19 00:52:17;;;;;;;7.53;4.70;;;-4.20;99.90;-4.70;100119.00;;;;4892736;28;108408;-63
2022/11/19 00:54:43;;;;;;;9.13;5.43;;;-4.20;99.90;-4.80;100119.00;;;;4895036;28;107734;-63
2022/11/19 00:57:09;;;;;;;7.53;4.97;;;-4.20;99.90;-4.90;100126.00;;;;4895514;28;122673;-62
2022/11/19 00:59:34;;;;;;;10.33;4.63;;;-4.40;99.90;-5.00;100132.00;;;;4893857;28;121891;-63
2022/11/19 01:02:00;;;;;;;5.87;4.10;;;-4.40;99.90;-5.00;100137.00;;;;4891092;28;110461;-63
2022/11/19 01:04:26;;;;;;;9.67;5.03;;;-4.40;99.90;-5.10;100130.00;;;;4897822;28;107454;-63
2022/11/19 01:06:51;;;;;;;7.23;4.10;;;-4.60;99.90;-5.10;100128.00;;;;4894096;28;108933;-64
2022/11/19 01:09:17;;;;;;;5.80;3.90;;;-4.50;99.90;-5.20;100132.00;;;;4895632;28;120970;-63
2022/11/19 01:11:43;;;;;;;5.60;4.57;;;-4.60;99.90;-5.20;100141.00;;;;4895847;28;110149;-63
2022/11/19 01:14:09;;;;;;;8.77;5.03;;;-4.60;99.90;-5.30;100133.00;;;;4896973;28;108312;-63
2022/11/19 01:16:38;;;;;;;5.80;3.80;;;-4.70;99.90;-5.40;100146.00;;;;4895816;28;122993;-62
2022/11/19 01:19:06;;;;;;;7.40;4.10;;;-4.80;99.90;-5.40;100141.00;;;;4897462;28;93488;-62
2022/11/19 01:21:34;;;;;;;7.87;4.70;;;-4.70;99.90;-5.40;100150.00;;;;4897352;28;92762;-63
2022/11/19 01:24:01;;;;;;;5.70;4.30;;;-4.80;99.90;-5.50;100144.00;;;;4898569;28;92977;-63
2022/11/19 01:26:27;;;;;;;6.77;4.87;;;-4.80;99.90;-5.50;100143.00;;;;4896327;28;93905;-61
2022/11/19 01:28:54;;;;;;;10.13;5.03;;;-5.30;99.90;-5.50;100144.00;;;;4896147;28;113744;-63
2022/11/19 01:31:26;;;;;;;10.13;6.30;;;-4.90;99.90;-5.50;100154.00;;;;4894632;28;100065;-65
2022/11/19 01:33:52;;;;;;;10.30;5.07;;;-4.90;99.90;-5.60;100148.00;;;;4895996;28;93507;-63
2022/11/19 01:36:25;;;;;;;6.77;4.87;;;-5.00;99.90;-5.60;100146.00;;;;4892759;28;93994;-64
2022/11/19 01:38:51;;;;;;;5.73;4.33;;;-5.00;99.90;-5.70;100145.00;;;;4896036;28;93338;-64
2022/11/19 01:41:22;;;;;;;6.47;4.50;;;-5.10;99.90;-5.80;100141.00;;;;4895524;28;93027;-63
2022/11/19 01:43:57;;;;;;;10.50;4.63;;;-5.20;99.90;-5.80;100153.00;;;;4897814;28;93160;-64
2022/11/19 01:46:30;;;;;;;5.50;4.37;;;-5.20;99.90;-5.80;100153.00;;;;4900378;28;92209;-63
2022/11/19 01:49:01;;;;;;;8.43;4.53;;;-5.10;99.90;-5.90;100144.00;;;;4896723;28;92824;-63
2022/11/19 01:51:44;;;;;;;6.93;5.17;;;-5.20;99.90;-5.90;100139.00;;;;4896848;28;92852;-64
2022/11/19 01:54:24;;;;;;;6.47;4.43;;;-5.30;99.90;-5.90;100151.00;;;;4894619;28;101137;-63
2022/11/19 01:56:50;;;;;;;6.43;5.10;;;-5.20;99.90;-6.00;100147.00;;;;4895061;28;93461;-63
2022/11/19 01:59:17;;;;;;;10.77;4.70;;;-5.30;99.90;-6.00;100141.00;;;;4895656;28;106707;-64
2022/11/19 02:01:44;;;;;;;8.47;5.27;;;-5.30;99.90;-6.00;100149.00;;;;4893706;28;109782;-64
2022/11/19 02:04:11;;;;;;;8.63;5.47;;;-5.30;99.90;-6.00;100155.00;;;;4897868;28;92935;-63
2022/11/19 02:06:37;;;;;;;11.10;5.20;;;-5.40;99.90;-6.10;100157.00;;;;4898778;28;113188;-63
2022/11/19 02:09:03;;;;;;;10.93;6.03;;;-5.50;99.90;-6.10;100157.00;;;;4894641;28;122900;-63
2022/11/19 02:11:49;;;;;;;14.33;5.70;;;-5.50;99.90;-6.10;100163.00;;;;4890483;28;111831;-64
2022/11/19 02:14:37;;;;;;;11.93;5.27;;;-5.50;99.90;-6.20;100162.00;;;;4906928;28;102171;-63
2022/11/19 02:17:24;;;;;;;12.90;5.20;;;-5.60;99.90;-6.20;100161.00;;;;4890286;28;116153;-64
2022/11/19 02:20:29;;;;;;;5.63;4.73;;;-5.50;99.90;-6.30;100168.00;;;;4895912;28;105618;-63
2022/11/19 02:22:54;;;;;;;8.67;4.97;;;-5.60;99.90;-6.30;100166.00;;;;4894502;28;92996;-63
2022/11/19 02:25:50;;;;;;;7.07;5.17;;;-5.70;99.90;-6.30;100163.00;;;;4894333;28;109271;-62
2022/11/19 02:28:32;;;;;;;8.93;5.57;;;-5.70;99.90;-6.40;100153.00;;;;4907420;28;92964;-64
2022/11/19 02:31:38;;;;;;;8.87;5.10;;;-5.80;99.90;-6.40;100153.00;;;;4894971;28;93019;-64
2022/11/19 02:34:28;;;;;;;8.17;5.57;;;-5.70;99.90;-6.50;100165.00;;;;4893169;28;102749;-62
2022/11/19 02:37:02;;;;;;;7.43;4.40;;;-5.80;99.90;-6.50;100178.00;;;;4895933;28;93266;-64
2022/11/19 02:39:49;;;;;;;7.13;4.67;;;-5.90;99.90;-6.60;100177.00;;;;4898371;28;92965;-63
2022/11/19 02:42:29;;;;;;;6.70;4.43;;;-5.90;99.90;-6.60;100190.00;;;;4894894;28;93032;-64
2022/11/19 02:45:06;;;;;;;8.30;4.97;;;-5.90;99.90;-6.60;100183.00;;;;4896122;28;92985;-62
2022/11/19 02:47:57;;;;;;;10.00;5.60;;;-5.90;99.90;-6.70;100191.00;;;;4894393;28;102388;-63
2022/11/19 02:50:50;;;;;;;9.53;4.70;;;-5.90;99.90;-6.70;100186.00;;;;4897423;28;114652;-63
2022/11/19 02:53:16;;;;;;;7.97;5.40;;;-5.50;99.90;-6.70;100197.00;;;;4895239;28;93191;-64
2022/11/19 02:56:09;;;;;;;7.57;5.27;;;-6.00;99.90;-6.70;100182.00;;;;4895470;28;92950;-64
2022/11/19 03:06:47;;;;;;;9.67;5.27;;;-6.10;99.90;-6.80;100182.00;;;;4896372;28;93263;-64
2022/11/19 03:09:14;;;;;;;10.37;5.50;;;-6.10;99.90;-6.80;100184.00;;;;4897524;28;108797;-63
2022/11/19 03:11:43;;;;;;;8.77;5.33;;;-6.20;99.90;-6.90;100194.00;;;;4896575;28;122019;-63
2022/11/19 03:17:17;;;;;;;9.27;4.83;;;-6.20;99.90;-7.00;100191.00;;;;4905972;28;93068;-64
2022/11/19 03:20:16;;;;;;;4.70;3.70;;;-6.30;99.90;-7.10;100190.00;;;;4900617;28;94407;-64
2022/11/19 03:23:02;;;;;;;7.33;5.20;;;-6.40;99.90;-7.10;100188.00;;;;4894144;28;116425;-63
2022/11/19 03:25:34;;;;;;;8.23;4.73;;;-6.20;99.90;-7.10;100186.00;;;;4891965;28;112188;-64
2022/11/19 03:28:06;;;;;;;6.93;4.57;;;-6.50;99.90;-7.10;100194.00;;;;4886570;28;96656;-64
2022/11/19 03:30:32;;;;;;;8.93;4.90;;;-6.40;99.90;-7.10;100197.00;;;;4894766;28;93210;-63
2022/11/19 03:33:07;;;;;;;8.63;5.57;;;-6.30;99.90;-7.10;100195.00;;;;4891165;28;123291;-63
2022/11/19 03:35:46;;;;;;;8.67;5.63;;;-6.60;99.90;-7.20;100196.00;;;;4893720;28;93141;-63
2022/11/19 03:38:21;;;;;;;17.03;9.63;;;-6.40;99.90;-7.20;100201.00;;;;4891649;28;93202;-63
2022/11/19 03:40:48;;;;;;;14.67;8.07;;;-6.40;99.90;-7.20;100197.00;;;;4892032;28;103289;-63
2022/11/19 03:43:18;;;;;;;16.93;8.27;;;-6.60;99.90;-7.20;100205.00;;;;4891832;28;123961;-63
2022/11/19 03:45:48;;;;;;;13.57;7.70;;;-6.50;99.90;-7.20;100207.00;;;;4892992;28;93306;-63
2022/11/19 03:48:17;;;;;;;12.87;7.30;;;-6.50;99.90;-7.30;100207.00;;;;4892087;28;112078;-63
2022/11/19 03:51:13;;;;;;;9.07;5.40;;;-6.60;99.90;-7.40;100210.00;;;;4878765;28;109078;-64
2022/11/19 03:53:38;;;;;;;9.60;5.50;;;-6.60;99.90;-7.30;100214.00;;;;4889517;28;98212;-63
2022/11/19 03:56:09;;;;;;;10.17;5.87;;;-5.70;99.90;-7.40;100215.00;;;;4892721;28;122327;-63
2022/11/19 03:58:43;;;;;;;14.13;7.30;;;-6.70;99.90;-7.40;100211.00;;;;4893612;28;102061;-62
2022/11/19 04:01:10;;;;;;;12.90;7.53;;;-6.70;99.90;-7.40;100210.00;;;;4896907;28;92863;-65
2022/11/19 04:03:36;;;;;;;9.47;6.30;;;-6.70;99.90;-7.40;100210.00;;;;4896565;28;95201;-63
2022/11/19 04:06:03;;;;;;;9.40;5.77;;;-6.70;99.90;-7.40;100224.00;;;;4894341;28;93938;-63
2022/11/19 04:08:28;;;;;;;7.63;5.83;;;-6.70;99.90;-7.40;100219.00;;;;4893292;28;93028;-63
2022/11/19 04:10:57;;;;;;;9.67;5.07;;;-6.70;99.90;-7.40;100221.00;;;;4895706;28;109324;-63
2022/11/19 04:13:22;;;;;;;8.10;5.37;;;-6.60;99.90;-7.40;100217.00;;;;4894671;28;93160;-63
2022/11/19 04:15:48;;;;;;;7.60;5.53;;;-6.70;99.90;-7.40;100215.00;;;;4894858;28;121728;-63
2022/11/19 04:18:14;;;;;;;8.33;5.00;;;-6.70;99.90;-7.50;100214.00;;;;4893064;28;92845;-62
2022/11/19 04:20:41;;;;;;;7.70;5.00;;;-6.80;99.90;-7.50;100229.00;;;;4897312;28;110064;-64
2022/11/19 04:23:07;;;;;;;7.53;4.50;;;-6.80;99.90;-7.50;100228.00;;;;4892576;28;113230;-64
2022/11/19 04:25:32;;;;;;;9.83;5.40;;;-6.20;99.90;-7.50;100224.00;;;;4895333;28;122760;-63
2022/11/19 04:27:58;;;;;;;8.87;5.77;;;-6.80;99.90;-7.50;100234.00;;;;4893856;28;111939;-63
2022/11/19 04:30:24;;;;;;;7.80;5.00;;;-6.80;99.90;-7.50;100226.00;;;;4896783;28;108057;-65
2022/11/19 04:32:49;;;;;;;8.27;4.97;;;-6.80;99.90;-7.50;100224.00;;;;4893715;28;107483;-64
2022/11/19 04:35:17;;;;;;;11.27;4.30;;;-6.80;99.90;-7.50;100229.00;;;;4896063;28;96901;-64
2022/11/19 04:37:42;;;;;;;8.80;6.33;;;-6.80;99.90;-7.50;100224.00;;;;4893298;28;94062;-64
2022/11/19 04:40:09;;;;;;;12.43;7.83;;;-6.80;99.90;-7.50;100221.00;;;;4896456;28;92955;-63
2022/11/19 04:42:34;;;;;;;12.37;7.43;;;-6.80;99.90;-7.50;100220.00;;;;4898666;28;93817;-64
2022/11/19 04:45:00;;;;;;;12.53;6.50;;;-6.10;99.90;-7.50;100219.00;;;;4896348;28;120751;-64
2022/11/19 04:47:26;;;;;;;10.13;5.67;;;-6.90;99.90;-7.50;100215.00;;;;4894943;28;108610;-64
2022/11/19 04:49:51;;;;;;;8.13;5.60;;;-6.80;99.90;-7.50;100201.00;;;;4897640;28;107593;-64
2022/11/19 04:52:17;;;;;;;9.43;5.73;;;-6.80;99.90;-7.50;100221.00;;;;4896890;28;123070;-64
2022/11/19 04:54:42;;;;;;;10.90;6.00;;;-6.80;99.90;-7.50;100220.00;;;;4893317;28;114017;-64
2022/11/19 04:57:08;;;;;;;9.93;5.37;;;-7.60;99.90;-7.60;100230.00;;;;4891141;28;108587;-63
2022/11/19 04:59:34;;;;;;;5.67;4.53;;;-6.10;99.90;-7.60;100220.00;;;;4890161;28;110495;-62
2022/11/19 05:01:59;;;;;;;5.87;4.10;;;-6.90;99.90;-7.70;100218.00;;;;4892015;28;121609;-63
2022/11/19 05:04:25;;;;;;;7.40;5.03;;;-6.20;99.90;-7.70;100223.00;;;;4893039;28;123659;-63
2022/11/19 05:06:51;;;;;;;9.07;4.73;;;-6.30;99.90;-7.70;100219.00;;;;4892392;28;110341;-63
2022/11/19 05:09:16;;;;;;;7.30;4.83;;;-7.00;99.90;-7.70;100219.00;;;;4892891;28;109000;-63
2022/11/19 05:11:42;;;;;;;9.83;4.97;;;-7.00;99.90;-7.70;100226.00;;;;4892139;28;121862;-63
2022/11/19 05:14:08;;;;;;;12.13;5.63;;;-7.00;99.90;-7.70;100228.00;;;;4892715;28;122310;-64
2022/11/19 05:16:33;;;;;;;8.97;5.93;;;-7.00;99.90;-7.70;100236.00;;;;4899733;28;109733;-64
2022/11/19 05:18:59;;;;;;;6.57;4.23;;;-7.00;99.90;-7.70;100218.00;;;;4896713;28;109431;-64
2022/11/19 05:21:24;;;;;;;7.60;4.53;;;-7.00;99.90;-7.80;100235.00;;;;4895123;28;120921;-64
2022/11/19 05:23:50;;;;;;;9.80;5.33;;;-6.00;99.90;-7.80;100227.00;;;;4899767;28;123508;-64
2022/11/19 05:26:16;;;;;;;8.60;5.00;;;-7.50;99.90;-7.80;100220.00;;;;4898054;28;110146;-64
2022/11/19 05:28:41;;;;;;;6.73;4.90;;;-6.20;99.90;-7.80;100215.00;;;;4896467;28;107610;-64
2022/11/19 05:31:08;;;;;;;6.70;4.87;;;-7.10;99.90;-7.90;100221.00;;;;4895086;28;102226;-64
2022/11/19 05:33:33;;;;;;;9.13;4.77;;;-7.10;99.90;-7.90;100225.00;;;;4900199;28;123125;-64
2022/11/19 05:35:59;;;;;;;7.70;4.77;;;-7.20;99.90;-8.00;100229.00;;;;4900915;28;92335;-64
2022/11/19 05:38:25;;;;;;;7.00;4.53;;;-6.40;99.90;-8.00;100239.00;;;;4893604;28;107743;-64
2022/11/19 05:40:50;;;;;;;8.93;4.60;;;-7.30;99.90;-8.00;100229.00;;;;4897887;28;123305;-64
2022/11/19 05:43:16;;;;;;;8.00;5.30;;;-7.30;99.90;-8.00;100234.00;;;;4894649;28;119931;-64
2022/11/19 05:45:41;;;;;;;39.53;24.73;;;-7.30;99.90;-8.00;100229.00;;;;4894814;28;109545;-64
2022/11/19 05:48:07;;;;;;;12.83;6.10;;;-7.30;99.90;-8.00;100237.00;;;;4892957;28;108727;-65
2022/11/19 05:50:33;;;;;;;7.27;5.03;;;-7.20;99.90;-7.90;100240.00;;;;4895021;28;122654;-65
2022/11/19 05:52:58;;;;;;;6.83;4.43;;;-7.30;99.90;-7.90;100256.00;;;;4893035;28;115705;-64
2022/11/19 05:55:24;;;;;;;9.33;4.97;;;-6.20;99.90;-7.90;100246.00;;;;4896729;28;106193;-64
2022/11/19 05:57:50;;;;;;;15.67;9.33;;;-7.30;99.90;-8.00;100247.00;;;;4900603;28;93073;-64
2022/11/19 06:00:17;;;;;;;16.37;9.53;;;-6.60;99.90;-8.00;100257.00;;;;4896145;28;121998;-64
2022/11/19 06:02:43;;;;;;;11.07;7.20;;;-7.20;99.90;-8.00;100254.00;;;;4891994;28;92802;-65
2022/11/19 06:05:09;;;;;;;10.40;5.53;;;-7.10;99.90;-8.00;100262.00;;;;4899770;28;93121;-64
2022/11/19 06:07:35;;;;;;;6.10;4.73;;;-7.40;99.90;-8.00;100256.00;;;;4898171;28;93905;-64
2022/11/19 06:10:01;;;;;;;5.80;4.77;;;-7.30;99.90;-8.00;100259.00;;;;4891863;28;122685;-64
2022/11/19 06:12:26;;;;;;;7.70;5.17;;;-7.30;99.90;-8.00;100262.00;;;;4890298;28;93164;-64
2022/11/19 06:14:52;;;;;;;5.30;4.67;;;-7.30;99.90;-8.00;100279.00;;;;4897940;28;110643;-64
2022/11/19 06:17:18;;;;;;;8.30;4.77;;;-7.30;99.90;-8.00;100277.00;;;;4891768;28;109634;-64
2022/11/19 06:19:43;;;;;;;8.97;5.30;;;-7.30;99.90;-8.00;100272.00;;;;4893812;28;95283;-63
2022/11/19 06:22:09;;;;;;;8.47;5.07;;;-7.40;99.90;-8.00;100277.00;;;;4894481;28;122583;-64
2022/11/19 06:24:35;;;;;;;7.10;4.67;;;-7.40;99.90;-8.00;100279.00;;;;4890688;28;110679;-65
2022/11/19 06:27:00;;;;;;;6.37;5.20;;;-7.20;99.90;-8.00;100285.00;;;;4886633;28;108280;-64
2022/11/19 06:29:26;;;;;;;9.13;5.60;;;-7.30;99.90;-8.00;100281.00;;;;4891522;28;122610;-63
2022/11/19 06:31:52;;;;;;;9.20;5.43;;;-7.40;99.90;-8.00;100283.00;;;;4891614;28;122537;-64
2022/11/19 06:34:17;;;;;;;9.77;5.50;;;-7.30;99.90;-8.00;100276.00;;;;4888426;28;109706;-64
2022/11/19 06:36:43;;;;;;;9.67;5.00;;;-7.30;99.90;-8.00;100280.00;;;;4894882;28;93160;-63
2022/11/19 06:39:09;;;;;;;7.00;4.90;;;-7.30;99.90;-8.00;100270.00;;;;4891355;28;124156;-65
2022/11/19 06:41:35;;;;;;;8.53;5.20;;;-7.20;99.90;-8.00;100279.00;;;;4892421;28;105453;-64
2022/11/19 06:44:01;;;;;;;10.27;6.83;;;-7.30;99.90;-8.10;100287.00;;;;4889395;28;108926;-64
2022/11/19 06:46:26;;;;;;;12.90;7.17;;;-6.90;99.90;-8.10;100288.00;;;;4891533;28;92963;-64
2022/11/19 06:48:52;;;;;;;9.30;6.57;;;-7.40;99.90;-8.10;100288.00;;;;4892969;28;122093;-64
2022/11/19 06:51:18;;;;;;;13.47;7.33;;;-7.30;99.90;-8.10;100275.00;;;;4890915;28;121018;-64
2022/11/19 06:53:43;;;;;;;12.43;6.57;;;-7.40;99.90;-8.10;100277.00;;;;4892013;28;110488;-64
2022/11/19 06:56:09;;;;;;;9.57;6.50;;;-7.40;99.90;-8.00;100280.00;;;;4891422;28;108722;-64
2022/11/19 06:58:35;;;;;;;13.83;7.00;;;-6.60;99.90;-7.80;100283.00;;;;4893570;28;109506;-64
2022/11/19 07:01:01;;;;;;;14.77;7.20;;;-7.30;99.90;-7.50;100287.00;;;;4895561;28;122378;-65
2022/11/19 07:03:26;;;;;;;11.43;6.60;;;-7.00;99.90;-7.30;100288.00;;;;4893745;28;110941;-65
2022/11/19 07:05:58;;;;;;;8.23;6.33;;;-6.80;99.90;-7.10;100288.00;;;;4889987;28;108987;-64
2022/11/19 07:08:24;;;;;;;13.43;7.47;;;-6.60;99.90;-6.80;100284.00;;;;4891743;28;111501;-64
2022/11/19 07:10:50;;;;;;;12.17;7.17;;;-6.30;99.90;-6.50;100282.00;;;;4895055;28;93586;-65
2022/11/19 07:13:15;;;;;;;10.10;7.27;;;-6.00;99.90;-6.10;100284.00;;;;4890889;28;106004;-64
2022/11/19 07:15:42;;;;;;;16.33;8.37;;;-4.70;99.90;-5.80;100286.00;;;;4893519;28;106835;-64
2022/11/19 07:18:07;;;;;;;16.17;9.67;;;-5.30;99.90;-5.50;100294.00;;;;4891875;28;93110;-65
2022/11/19 07:20:33;;;;;;;15.70;9.47;;;-5.10;99.90;-5.20;100281.00;;;;4891931;28;112485;-65
2022/11/19 07:22:59;;;;;;;14.33;8.73;;;-4.70;99.90;-5.00;100289.00;;;;4890094;28;93000;-64
2022/11/19 07:25:25;;;;;;;14.70;9.17;;;-4.40;99.90;-4.70;100296.00;;;;4020667;28;10000113;-63
2022/11/19 07:27:51;;;;;;;10.40;7.70;;;-4.40;99.90;-4.60;100299.00;;;;4896219;28;93066;-63
2022/11/19 07:30:17;;;;;;;9.40;6.50;;;-4.10;99.90;-4.40;100308.00;;;;4893391;28;92917;-63
2022/11/19 07:32:43;;;;;;;10.40;7.83;;;-3.90;99.90;-4.20;100301.00;;;;4017878;28;10000703;-62
2022/11/19 07:35:10;;;;;;;15.07;8.43;;;-3.60;99.90;-4.10;100304.00;;;;4891743;28;93555;-63
2022/11/19 07:37:35;;;;;;;9.63;7.57;;;-3.50;99.90;-4.00;100303.00;;;;4896748;28;92220;-63
2022/11/19 07:40:03;;;;;;;13.70;8.17;;;-3.50;99.90;-3.70;100299.00;;;;4891129;28;121938;-63
2022/11/19 07:45:13;;;;;;;13.63;8.57;;;-3.00;99.90;-3.00;100308.00;;;;4878937;28;94173;-62
2022/11/19 07:47:39;;;;;;;12.43;8.47;;;-2.10;99.90;-2.60;100308.00;;;;4890549;28;102629;-62
2022/11/19 07:50:05;;;;;;;12.77;7.93;;;-2.40;99.90;-2.40;100313.00;;;;4891623;28;123261;-63
2022/11/19 07:52:31;;;;;;;10.83;6.03;;;-2.00;99.90;-2.20;100305.00;;;;4892579;28;105212;-63
2022/11/19 07:54:56;;;;;;;7.50;5.60;;;-1.90;99.90;-2.00;100300.00;;;;4894593;28;108955;-62
2022/11/19 07:57:22;;;;;;;6.80;5.63;;;-1.60;99.90;-1.70;100306.00;;;;4889713;28;112144;-61
2022/11/19 07:59:48;;;;;;;6.43;4.10;;;-1.40;99.90;-1.50;100314.00;;;;4894191;28;102339;-63
2022/11/19 08:02:14;;;;;;;10.90;4.73;;;-1.30;99.90;-1.40;100314.00;;;;4893549;28;111648;-62
2022/11/19 08:04:40;;;;;;;8.20;4.07;;;-1.10;99.90;-1.40;100316.00;;;;4895040;28;101994;-64
2022/11/19 08:07:07;;;;;;;8.27;4.70;;;-0.90;99.90;-1.30;100316.00;;;;4891914;28;124843;-64
2022/11/19 08:09:33;;;;;;;6.27;3.63;;;-1.00;99.90;-1.30;100309.00;;;;4897661;28;93466;-65
2022/11/19 08:11:58;;;;;;;9.57;4.80;;;-0.90;99.90;-1.20;100307.00;;;;4900709;28;93172;-63
2022/11/19 08:14:24;;;;;;;7.57;4.43;;;-0.70;99.90;-1.00;100316.00;;;;4894415;28;109026;-65
2022/11/19 08:19:51;;;;;;;10.17;3.50;;;-0.50;99.90;-0.90;100310.00;;;;4902517;28;93704;-64
2022/11/19 08:22:16;;;;;;;4.70;3.37;;;-0.40;99.90;-1.00;100304.00;;;;4901460;28;110549;-65
2022/11/19 08:24:43;;;;;;;4.53;2.70;;;-0.50;99.90;-0.90;100309.00;;;;4893632;28;92824;-64
2022/11/19 08:27:09;;;;;;;6.77;4.40;;;-0.50;99.90;-0.90;100317.00;;;;4889843;28;121800;-65
2022/11/19 08:29:35;;;;;;;6.63;3.97;;;-0.40;99.90;-0.90;100311.00;;;;4896207;28;93951;-66
2022/11/19 08:32:00;;;;;;;4.80;3.77;;;-0.40;99.90;-1.00;100295.00;;;;4892405;28;110337;-65
2022/11/19 08:34:26;;;;;;;6.27;4.17;;;-0.50;99.90;-1.00;100311.00;;;;4889085;28;107264;-65
2022/11/19 08:36:52;;;;;;;7.77;5.60;;;-0.60;99.90;-1.10;100312.00;;;;4890523;28;114962;-66
2022/11/19 08:39:17;;;;;;;9.57;5.17;;;-0.50;99.90;-1.00;100306.00;;;;4889371;28;98105;-66
2022/11/19 08:44:27;;;;;;;5.87;4.67;;;-0.50;99.90;-0.90;100310.00;;;;4014071;28;10001484;-66
2022/11/19 08:46:53;;;;;;;7.17;3.93;;;-0.40;99.90;-0.80;100308.00;;;;4895919;28;92750;-65
2022/11/19 08:49:18;;;;;;;6.73;4.27;;;-0.50;99.90;-0.80;100312.00;;;;4888053;28;92934;-66
2022/11/19 08:51:44;;;;;;;7.50;4.20;;;-0.40;99.90;-0.70;100309.00;;;;4894589;28;92463;-64
2022/11/19 08:54:11;;;;;;;8.37;5.37;;;-0.30;99.90;-0.70;100312.00;;;;4889830;28;93272;-64
2022/11/19 08:56:37;;;;;;;11.77;6.43;;;-0.30;99.90;-0.70;100310.00;;;;4891270;28;93147;-64
2022/11/19 08:59:02;;;;;;;7.67;5.33;;;-0.30;99.90;-0.60;100300.00;;;;4893070;28;93948;-64
2022/11/19 09:01:29;;;;;;;6.13;4.63;;;-0.20;99.90;-0.40;100303.00;;;;4891164;28;122968;-63
2022/11/19 09:03:54;;;;;;;8.17;4.63;;;-0.10;99.90;-0.20;100295.00;;;;4889067;28;94670;-63
2022/11/19 09:06:20;;;;;;;5.10;4.60;;;0.10;99.90;0.00;100294.00;;;;4890481;28;107092;-64
2022/11/19 09:08:45;;;;;;;5.07;4.47;;;0.20;99.90;0.20;100303.00;;;;4887985;28;107856;-64
2022/11/19 09:11:15;;;;;;;6.43;4.63;;;0.50;99.90;0.60;100313.00;;;;4889594;28;112428;-64
2022/11/19 09:13:41;;;;;;;7.57;4.60;;;0.90;99.90;1.00;100298.00;;;;4889739;28;97905;-64
2022/11/19 09:16:08;;;;;;;6.03;4.63;;;1.10;99.90;1.40;100312.00;;;;4886745;28;111241;-65
2022/11/19 09:18:37;;;;;;;8.63;3.93;;;1.40;99.90;1.70;100311.00;;;;4891329;28;101212;-67
2022/11/19 09:21:05;;;;;;;7.00;3.67;;;1.90;99.90;2.10;100319.00;;;;4889094;28;93062;-66
2022/11/19 09:23:30;;;;;;;5.67;3.77;;;2.20;99.90;2.50;100324.00;;;;4890618;28;94248;-66
2022/11/19 09:26:03;;;;;;;3.47;3.17;;;2.50;99.90;3.00;100309.00;;;;4890133;28;110505;-66
2022/11/19 09:28:30;;;;;;;4.80;4.40;;;3.00;99.90;3.50;100312.00;;;;4898071;28;93123;-66
2022/11/19 09:31:15;;;;;;;4.60;4.13;;;4.50;99.90;3.90;100317.00;;;;4891903;28;122249;-68
2022/11/19 09:33:45;;;;;;;6.67;3.67;;;3.90;99.90;4.20;100318.00;;;;4890027;28;93647;-68
2022/11/19 09:36:12;;;;;;;6.97;4.60;;;4.20;99.90;4.30;100318.00;;;;4894662;28;93059;-68
2022/11/19 09:38:39;;;;;;;5.03;3.93;;;4.40;99.90;4.40;100335.00;;;;4914301;28;93160;-66
2022/11/19 09:41:59;;;;;;;5.40;4.33;;;4.60;99.90;4.40;100341.00;;;;4894257;28;93412;-66
2022/11/19 09:44:47;;;;;;;4.87;3.83;;;4.60;99.90;4.40;100339.00;;;;4888921;28;108523;-66
2022/11/19 09:47:21;;;;;;;5.67;3.77;;;4.60;99.90;4.30;100351.00;;;;4889249;28;104181;-67
2022/11/19 09:50:24;;;;;;;9.30;4.60;;;4.40;99.90;4.40;100351.00;;;;4895608;28;94143;-66
2022/11/19 09:52:57;;;;;;;5.67;3.90;;;4.60;99.90;4.40;100345.00;;;;4892321;28;93984;-67
2022/11/19 09:55:32;;;;;;;4.63;4.17;;;4.50;99.90;4.40;100332.00;;;;4892018;28;93018;-66
2022/11/19 09:57:59;;;;;;;6.90;4.30;;;4.90;99.90;4.30;100339.00;;;;4907630;28;92916;-65
2022/11/19 10:00:29;;;;;;;6.37;4.70;;;4.60;99.90;4.10;100326.00;;;;4892847;28;93215;-64
2022/11/19 10:02:57;;;;;;;7.23;3.63;;;4.40;99.90;4.00;100339.00;;;;4894674;28;93782;-64
2022/11/19 10:05:45;;;;;;;6.83;4.50;;;4.40;99.90;3.90;100321.00;;;;4894004;28;92890;-64
2022/11/19 10:09:09;;;;;;;7.83;4.40;;;4.20;99.90;3.80;100335.00;;;;4893219;28;103076;-64
2022/11/19 10:12:20;;;;;;;6.13;4.33;;;4.10;99.90;3.60;100338.00;;;;4892391;28;93569;-65
2022/11/19 10:15:08;;;;;;;6.57;4.70;;;4.00;99.90;3.40;100336.00;;;;4893327;28;94166;-64
2022/11/19 10:18:15;;;;;;;8.83;4.40;;;3.60;99.90;3.40;100314.00;;;;4891224;28;122276;-65
2022/11/19 10:21:13;;;;;;;7.13;4.50;;;3.80;99.90;3.40;100316.00;;;;4892702;28;93049;-64
2022/11/19 10:23:47;;;;;;;9.10;4.73;;;3.70;99.90;3.40;100313.00;;;;4894961;28;93237;-64
2022/11/19 10:26:39;;;;;;;6.17;4.47;;;3.60;99.90;3.50;100313.00;;;;4891109;28;107618;-64
2022/11/19 10:29:20;;;;;;;8.37;6.03;;;3.80;99.90;3.40;100320.00;;;;4891818;28;93507;-64
2022/11/19 10:31:49;;;;;;;6.63;4.40;;;3.70;99.90;3.40;100324.00;;;;4890049;28;92874;-64
2022/11/19 10:34:30;;;;;;;8.67;5.07;;;3.60;99.90;3.20;100323.00;;;;4892754;28;92893;-63
2022/11/19 10:37:08;;;;;;;10.60;5.23;;;3.50;99.90;3.10;100317.00;;;;4891276;28;114063;-64
2022/11/19 10:39:48;;;;;;;7.37;4.37;;;3.50;99.90;3.10;100312.00;;;;4889599;28;94181;-66
2022/11/19 10:42:32;;;;;;;6.03;4.03;;;3.50;99.90;3.10;100297.00;;;;4886399;28;99934;-65
2022/11/19 10:45:15;;;;;;;8.63;4.20;;;3.40;99.90;3.20;100309.00;;;;4905239;28;102102;-64
2022/11/19 10:48:02;;;;;;;10.77;4.50;;;3.50;99.90;3.30;100297.00;;;;4891030;28;116114;-65
2022/11/19 10:50:28;;;;;;;7.47;4.60;;;3.60;99.90;3.40;100302.00;;;;4891097;28;95230;-64
2022/11/19 10:53:06;;;;;;;8.20;4.90;;;3.60;99.90;3.50;100303.00;;;;4896534;28;93296;-64
2022/11/19 10:55:38;;;;;;;6.07;4.47;;;3.70;99.90;3.70;100291.00;;;;4908012;28;92911;-65
2022/11/19 10:58:17;;;;;;;7.63;4.53;;;3.80;99.90;3.90;100301.00;;;;4892135;28;93124;-65
2022/11/19 11:00:43;;;;;;;6.57;4.23;;;4.00;99.90;4.20;100298.00;;;;4890966;28;93214;-64
2022/11/19 11:03:30;;;;;;;7.97;4.77;;;4.20;99.90;4.40;100289.00;;;;4892646;28;92149;-64
2022/11/19 11:06:05;;;;;;;6.83;4.17;;;4.50;99.90;4.60;100298.00;;;;4895833;28;94623;-64
2022/11/19 11:08:31;;;;;;;6.00;4.17;;;4.70;99.90;4.70;100290.00;;;;4888419;28;93702;-64
2022/11/19 11:10:58;;;;;;;6.00;5.03;;;4.80;99.90;4.70;100290.00;;;;4888127;28;93879;-65
2022/11/19 11:16:46;;;;;;;6.63;3.97;;;4.90;99.00;4.90;100283.00;;;;4891956;28;93128;-64
2022/11/19 11:19:18;;;;;;;6.80;4.90;;;5.40;99.50;5.10;100285.00;;;;4890647;28;94174;-65
2022/11/19 11:21:45;;;;;;;7.30;4.33;;;5.20;98.10;5.10;100292.00;;;;4893315;28;93874;-64